sensor_id;sensor_type;location;lat;lon;timestamp;P1;durP1;ratioP1;P2;durP2;ratioP2
18443;SDS011;9350;53.176;8.194;2023-01-29T00:01:12;19.05;;;8.15;;
18443;SDS011;9350;53.176;8.194;2023-01-29T00:03:40;15.50;;;8.50;;
18443;SDS011;9350;53.176;8.194;2023-01-29T00:06:07;15.20;;;8.00;;
18443;SDS011;9350;53.176;8.194;2023-01-29T00:08:36;16.63;;;8.20;;
18443;SDS011;9350;53.176;8.194;2023-01-29T00:11:03;14.23;;;7.97;;
18443;SDS011;9350;53.176;8.194;2023-01-29T00:13:32;17.63;;;8.63;;
18443;SDS011;9350;53.176;8.194;2023-01-29T00:15:59;12.32;;;7.88;;
18443;SDS011;9350;53.176;8.194;2023-01-29T00:18:26;13.23;;;8.23;;
18443;SDS011;9350;53.176;8.194;2023-01-29T00:20:55;14.57;;;8.02;;
18443;SDS011;9350;53.176;8.194;2023-01-29T00:23:22;18.45;;;8.65;;
18443;SDS011;9350;53.176;8.194;2023-01-29T00:25:49;15.55;;;8.70;;
18443;SDS011;9350;53.176;8.194;2023-01-29T00:28:16;19.25;;;8.82;;
18443;SDS011;9350;53.176;8.194;2023-01-29T00:30:42;14.65;;;8.50;;
18443;SDS011;9350;53.176;8.194;2023-01-29T00:33:09;15.38;;;8.68;;
18443;SDS011;9350;53.176;8.194;2023-01-29T00:35:38;16.45;;;8.70;;
18443;SDS011;9350;53.176;8.194;2023-01-29T00:38:07;18.45;;;9.13;;
18443;SDS011;9350;53.176;8.194;2023-01-29T00:40:35;17.25;;;8.82;;
18443;SDS011;9350;53.176;8.194;2023-01-29T00:43:18;17.00;;;8.35;;
18443;SDS011;9350;53.176;8.194;2023-01-29T00:46:02;16.58;;;8.55;;
18443;SDS011;9350;53.176;8.194;2023-01-29T00:48:30;16.58;;;9.20;;
18443;SDS011;9350;53.176;8.194;2023-01-29T00:50:57;16.63;;;9.35;;
18443;SDS011;9350;53.176;8.194;2023-01-29T00:53:25;16.13;;;9.43;;
18443;SDS011;9350;53.176;8.194;2023-01-29T00:55:52;20.10;;;8.82;;
18443;SDS011;9350;53.176;8.194;2023-01-29T00:58:18;18.95;;;8.98;;
18443;SDS011;9350;53.176;8.194;2023-01-29T01:00:46;18.40;;;10.02;;
18443;SDS011;9350;53.176;8.194;2023-01-29T01:03:14;18.88;;;9.98;;
18443;SDS011;9350;53.176;8.194;2023-01-29T01:05:41;17.10;;;9.07;;
18443;SDS011;9350;53.176;8.194;2023-01-29T01:08:08;18.15;;;9.35;;
18443;SDS011;9350;53.176;8.194;2023-01-29T01:10:58;20.65;;;9.20;;
18443;SDS011;9350;53.176;8.194;2023-01-29T01:13:26;19.80;;;9.60;;
18443;SDS011;9350;53.176;8.194;2023-01-29T01:15:53;16.55;;;9.40;;
18443;SDS011;9350;53.176;8.194;2023-01-29T01:18:20;17.67;;;9.35;;
18443;SDS011;9350;53.176;8.194;2023-01-29T01:20:47;21.65;;;9.55;;
18443;SDS011;9350;53.176;8.194;2023-01-29T01:23:15;16.90;;;9.63;;
18443;SDS011;9350;53.176;8.194;2023-01-29T01:25:43;20.42;;;9.82;;
18443;SDS011;9350;53.176;8.194;2023-01-29T01:28:11;20.45;;;9.98;;
18443;SDS011;9350;53.176;8.194;2023-01-29T01:30:38;22.33;;;9.82;;
18443;SDS011;9350;53.176;8.194;2023-01-29T01:33:04;19.17;;;9.73;;
18443;SDS011;9350;53.176;8.194;2023-01-29T01:35:31;20.35;;;10.48;;
18443;SDS011;9350;53.176;8.194;2023-01-29T01:37:58;18.88;;;10.02;;
18443;SDS011;9350;53.176;8.194;2023-01-29T01:40:25;17.92;;;9.60;;
18443;SDS011;9350;53.176;8.194;2023-01-29T01:42:53;17.65;;;9.68;;
18443;SDS011;9350;53.176;8.194;2023-01-29T01:45:24;19.67;;;10.27;;
18443;SDS011;9350;53.176;8.194;2023-01-29T01:47:53;19.60;;;9.50;;
18443;SDS011;9350;53.176;8.194;2023-01-29T01:50:26;20.10;;;10.07;;
18443;SDS011;9350;53.176;8.194;2023-01-29T01:52:56;18.65;;;9.95;;
18443;SDS011;9350;53.176;8.194;2023-01-29T01:55:28;19.38;;;10.02;;
18443;SDS011;9350;53.176;8.194;2023-01-29T01:57:58;19.95;;;10.13;;
18443;SDS011;9350;53.176;8.194;2023-01-29T02:00:30;19.73;;;10.35;;
18443;SDS011;9350;53.176;8.194;2023-01-29T02:02:57;21.45;;;10.60;;
18443;SDS011;9350;53.176;8.194;2023-01-29T02:05:43;18.63;;;10.88;;
18443;SDS011;9350;53.176;8.194;2023-01-29T02:08:29;19.75;;;10.02;;
18443;SDS011;9350;53.176;8.194;2023-01-29T02:11:18;18.80;;;10.20;;
18443;SDS011;9350;53.176;8.194;2023-01-29T02:13:45;19.95;;;10.63;;
18443;SDS011;9350;53.176;8.194;2023-01-29T02:16:19;19.35;;;10.82;;
18443;SDS011;9350;53.176;8.194;2023-01-29T02:18:46;24.98;;;10.02;;
18443;SDS011;9350;53.176;8.194;2023-01-29T02:21:22;18.10;;;10.07;;
18443;SDS011;9350;53.176;8.194;2023-01-29T02:27:12;19.35;;;10.77;;
18443;SDS011;9350;53.176;8.194;2023-01-29T02:29:45;17.55;;;10.32;;
18443;SDS011;9350;53.176;8.194;2023-01-29T02:32:21;21.25;;;10.38;;
18443;SDS011;9350;53.176;8.194;2023-01-29T02:34:56;24.33;;;11.20;;
18443;SDS011;9350;53.176;8.194;2023-01-29T02:37:54;22.98;;;10.77;;
18443;SDS011;9350;53.176;8.194;2023-01-29T02:40:28;20.25;;;10.93;;
18443;SDS011;9350;53.176;8.194;2023-01-29T02:42:59;22.30;;;11.32;;
18443;SDS011;9350;53.176;8.194;2023-01-29T02:45:33;21.88;;;11.00;;
18443;SDS011;9350;53.176;8.194;2023-01-29T02:48:07;18.98;;;10.40;;
18443;SDS011;9350;53.176;8.194;2023-01-29T02:50:42;20.75;;;10.70;;
18443;SDS011;9350;53.176;8.194;2023-01-29T02:53:14;19.65;;;10.82;;
18443;SDS011;9350;53.176;8.194;2023-01-29T02:55:43;20.70;;;10.35;;
18443;SDS011;9350;53.176;8.194;2023-01-29T02:58:15;22.65;;;10.93;;
18443;SDS011;9350;53.176;8.194;2023-01-29T03:00:47;22.50;;;11.38;;
18443;SDS011;9350;53.176;8.194;2023-01-29T03:03:16;19.08;;;10.25;;
18443;SDS011;9350;53.176;8.194;2023-01-29T03:05:48;19.95;;;10.63;;
18443;SDS011;9350;53.176;8.194;2023-01-29T03:08:20;19.45;;;10.80;;
18443;SDS011;9350;53.176;8.194;2023-01-29T03:11:01;22.02;;;11.50;;
18443;SDS011;9350;53.176;8.194;2023-01-29T03:13:31;22.55;;;10.98;;
18443;SDS011;9350;53.176;8.194;2023-01-29T03:16:08;20.42;;;11.07;;
18443;SDS011;9350;53.176;8.194;2023-01-29T03:18:41;21.15;;;11.98;;
18443;SDS011;9350;53.176;8.194;2023-01-29T03:21:13;22.55;;;11.88;;
18443;SDS011;9350;53.176;8.194;2023-01-29T03:24:03;21.83;;;11.85;;
18443;SDS011;9350;53.176;8.194;2023-01-29T03:26:51;23.92;;;11.80;;
18443;SDS011;9350;53.176;8.194;2023-01-29T03:29:35;19.58;;;11.32;;
18443;SDS011;9350;53.176;8.194;2023-01-29T03:32:23;22.38;;;11.68;;
18443;SDS011;9350;53.176;8.194;2023-01-29T03:34:56;20.95;;;11.43;;
18443;SDS011;9350;53.176;8.194;2023-01-29T03:37:28;22.67;;;12.48;;
18443;SDS011;9350;53.176;8.194;2023-01-29T03:39:59;20.00;;;11.52;;
18443;SDS011;9350;53.176;8.194;2023-01-29T03:42:27;23.75;;;12.90;;
18443;SDS011;9350;53.176;8.194;2023-01-29T03:45:04;25.05;;;12.40;;
18443;SDS011;9350;53.176;8.194;2023-01-29T03:47:39;27.73;;;13.02;;
18443;SDS011;9350;53.176;8.194;2023-01-29T03:50:11;24.30;;;12.88;;
18443;SDS011;9350;53.176;8.194;2023-01-29T03:52:50;25.17;;;12.45;;
18443;SDS011;9350;53.176;8.194;2023-01-29T03:55:27;26.55;;;13.60;;
18443;SDS011;9350;53.176;8.194;2023-01-29T03:58:02;26.00;;;13.57;;
18443;SDS011;9350;53.176;8.194;2023-01-29T04:00:35;25.75;;;13.40;;
18443;SDS011;9350;53.176;8.194;2023-01-29T04:03:09;28.20;;;14.48;;
18443;SDS011;9350;53.176;8.194;2023-01-29T04:05:42;23.52;;;13.13;;
18443;SDS011;9350;53.176;8.194;2023-01-29T04:08:13;24.45;;;13.30;;
18443;SDS011;9350;53.176;8.194;2023-01-29T04:10:46;28.83;;;14.65;;
18443;SDS011;9350;53.176;8.194;2023-01-29T04:13:14;27.88;;;14.40;;
18443;SDS011;9350;53.176;8.194;2023-01-29T04:15:44;27.10;;;14.43;;
18443;SDS011;9350;53.176;8.194;2023-01-29T04:18:15;26.33;;;13.65;;
18443;SDS011;9350;53.176;8.194;2023-01-29T04:20:42;29.85;;;14.95;;
18443;SDS011;9350;53.176;8.194;2023-01-29T04:23:17;24.50;;;14.15;;
18443;SDS011;9350;53.176;8.194;2023-01-29T04:25:48;26.77;;;14.45;;
18443;SDS011;9350;53.176;8.194;2023-01-29T04:28:20;25.92;;;14.10;;
18443;SDS011;9350;53.176;8.194;2023-01-29T04:30:53;27.90;;;14.20;;
18443;SDS011;9350;53.176;8.194;2023-01-29T04:33:28;25.98;;;14.23;;
18443;SDS011;9350;53.176;8.194;2023-01-29T04:36:02;27.00;;;14.57;;
18443;SDS011;9350;53.176;8.194;2023-01-29T04:38:49;24.02;;;13.50;;
18443;SDS011;9350;53.176;8.194;2023-01-29T04:41:25;29.63;;;14.82;;
18443;SDS011;9350;53.176;8.194;2023-01-29T04:43:58;25.55;;;14.70;;
18443;SDS011;9350;53.176;8.194;2023-01-29T04:46:32;30.40;;;15.38;;
18443;SDS011;9350;53.176;8.194;2023-01-29T04:49:09;27.90;;;14.85;;
18443;SDS011;9350;53.176;8.194;2023-01-29T04:51:43;26.08;;;14.20;;
18443;SDS011;9350;53.176;8.194;2023-01-29T04:54:17;27.33;;;14.93;;
18443;SDS011;9350;53.176;8.194;2023-01-29T04:56:52;27.73;;;14.40;;
18443;SDS011;9350;53.176;8.194;2023-01-29T04:59:23;29.58;;;14.43;;
18443;SDS011;9350;53.176;8.194;2023-01-29T05:01:54;27.25;;;14.93;;
18443;SDS011;9350;53.176;8.194;2023-01-29T05:04:23;29.42;;;14.50;;
18443;SDS011;9350;53.176;8.194;2023-01-29T05:06:52;29.50;;;15.40;;
18443;SDS011;9350;53.176;8.194;2023-01-29T05:09:20;25.23;;;14.45;;
18443;SDS011;9350;53.176;8.194;2023-01-29T05:11:48;30.73;;;14.90;;
18443;SDS011;9350;53.176;8.194;2023-01-29T05:14:16;27.20;;;14.95;;
18443;SDS011;9350;53.176;8.194;2023-01-29T05:16:45;29.42;;;15.65;;
18443;SDS011;9350;53.176;8.194;2023-01-29T05:19:14;27.45;;;15.60;;
18443;SDS011;9350;53.176;8.194;2023-01-29T05:21:43;26.58;;;15.32;;
18443;SDS011;9350;53.176;8.194;2023-01-29T05:24:13;30.35;;;15.48;;
18443;SDS011;9350;53.176;8.194;2023-01-29T05:26:41;33.70;;;15.68;;
18443;SDS011;9350;53.176;8.194;2023-01-29T05:29:27;31.35;;;15.98;;
18443;SDS011;9350;53.176;8.194;2023-01-29T05:31:54;27.42;;;15.30;;
18443;SDS011;9350;53.176;8.194;2023-01-29T05:34:20;32.40;;;16.80;;
18443;SDS011;9350;53.176;8.194;2023-01-29T05:36:49;28.27;;;15.90;;
18443;SDS011;9350;53.176;8.194;2023-01-29T05:39:15;30.10;;;16.48;;
18443;SDS011;9350;53.176;8.194;2023-01-29T05:41:42;32.88;;;16.15;;
18443;SDS011;9350;53.176;8.194;2023-01-29T05:44:09;31.58;;;16.83;;
18443;SDS011;9350;53.176;8.194;2023-01-29T05:46:36;34.55;;;17.20;;
18443;SDS011;9350;53.176;8.194;2023-01-29T05:49:03;33.67;;;17.27;;
18443;SDS011;9350;53.176;8.194;2023-01-29T05:51:31;34.25;;;17.65;;
18443;SDS011;9350;53.176;8.194;2023-01-29T05:53:59;33.65;;;18.65;;
18443;SDS011;9350;53.176;8.194;2023-01-29T05:56:26;36.17;;;18.20;;
18443;SDS011;9350;53.176;8.194;2023-01-29T05:58:52;37.28;;;18.20;;
18443;SDS011;9350;53.176;8.194;2023-01-29T06:01:20;34.60;;;17.95;;
18443;SDS011;9350;53.176;8.194;2023-01-29T06:03:49;34.72;;;19.08;;
18443;SDS011;9350;53.176;8.194;2023-01-29T06:06:15;34.20;;;18.10;;
18443;SDS011;9350;53.176;8.194;2023-01-29T06:08:43;38.80;;;19.08;;
18443;SDS011;9350;53.176;8.194;2023-01-29T06:11:11;40.03;;;19.40;;
18443;SDS011;9350;53.176;8.194;2023-01-29T06:13:40;35.97;;;19.35;;
18443;SDS011;9350;53.176;8.194;2023-01-29T06:16:07;36.95;;;20.35;;
18443;SDS011;9350;53.176;8.194;2023-01-29T06:18:35;41.00;;;20.35;;
18443;SDS011;9350;53.176;8.194;2023-01-29T06:21:03;40.70;;;19.15;;
18443;SDS011;9350;53.176;8.194;2023-01-29T06:23:31;37.17;;;18.52;;
18443;SDS011;9350;53.176;8.194;2023-01-29T06:25:58;34.70;;;19.30;;
18443;SDS011;9350;53.176;8.194;2023-01-29T06:28:27;42.13;;;20.05;;
18443;SDS011;9350;53.176;8.194;2023-01-29T06:30:55;39.28;;;19.33;;
18443;SDS011;9350;53.176;8.194;2023-01-29T06:33:23;35.10;;;18.73;;
18443;SDS011;9350;53.176;8.194;2023-01-29T06:35:54;36.40;;;19.63;;
18443;SDS011;9350;53.176;8.194;2023-01-29T06:38:22;36.08;;;18.77;;
18443;SDS011;9350;53.176;8.194;2023-01-29T06:40:49;39.78;;;19.17;;
18443;SDS011;9350;53.176;8.194;2023-01-29T06:43:16;37.60;;;18.73;;
18443;SDS011;9350;53.176;8.194;2023-01-29T06:45:47;38.95;;;19.75;;
18443;SDS011;9350;53.176;8.194;2023-01-29T06:48:15;40.63;;;19.98;;
18443;SDS011;9350;53.176;8.194;2023-01-29T06:50:42;35.67;;;18.17;;
18443;SDS011;9350;53.176;8.194;2023-01-29T06:53:09;39.38;;;19.70;;
18443;SDS011;9350;53.176;8.194;2023-01-29T06:55:36;38.13;;;19.70;;
18443;SDS011;9350;53.176;8.194;2023-01-29T06:58:04;36.75;;;19.13;;
18443;SDS011;9350;53.176;8.194;2023-01-29T07:00:31;40.88;;;19.52;;
18443;SDS011;9350;53.176;8.194;2023-01-29T07:02:59;36.95;;;19.88;;
18443;SDS011;9350;53.176;8.194;2023-01-29T07:05:26;39.03;;;19.33;;
18443;SDS011;9350;53.176;8.194;2023-01-29T07:07:52;42.55;;;20.92;;
18443;SDS011;9350;53.176;8.194;2023-01-29T07:10:19;39.08;;;19.63;;
18443;SDS011;9350;53.176;8.194;2023-01-29T07:12:46;38.17;;;20.05;;
18443;SDS011;9350;53.176;8.194;2023-01-29T07:15:13;46.35;;;20.00;;
18443;SDS011;9350;53.176;8.194;2023-01-29T07:17:43;38.00;;;19.10;;
18443;SDS011;9350;53.176;8.194;2023-01-29T07:20:11;43.30;;;20.10;;
18443;SDS011;9350;53.176;8.194;2023-01-29T07:22:38;37.95;;;19.38;;
18443;SDS011;9350;53.176;8.194;2023-01-29T07:25:05;37.22;;;19.98;;
18443;SDS011;9350;53.176;8.194;2023-01-29T07:27:33;35.58;;;19.58;;
18443;SDS011;9350;53.176;8.194;2023-01-29T07:30:00;46.53;;;20.85;;
18443;SDS011;9350;53.176;8.194;2023-01-29T07:32:27;39.17;;;19.90;;
18443;SDS011;9350;53.176;8.194;2023-01-29T07:34:54;40.55;;;20.20;;
18443;SDS011;9350;53.176;8.194;2023-01-29T07:37:22;44.00;;;20.08;;
18443;SDS011;9350;53.176;8.194;2023-01-29T07:39:49;43.25;;;20.27;;
18443;SDS011;9350;53.176;8.194;2023-01-29T07:42:15;39.58;;;20.15;;
18443;SDS011;9350;53.176;8.194;2023-01-29T07:44:42;43.13;;;21.25;;
18443;SDS011;9350;53.176;8.194;2023-01-29T07:47:09;41.92;;;20.48;;
18443;SDS011;9350;53.176;8.194;2023-01-29T07:49:39;41.13;;;20.75;;
18443;SDS011;9350;53.176;8.194;2023-01-29T07:52:05;45.10;;;21.05;;
18443;SDS011;9350;53.176;8.194;2023-01-29T07:54:33;40.10;;;20.70;;
18443;SDS011;9350;53.176;8.194;2023-01-29T07:57:00;38.65;;;19.75;;
18443;SDS011;9350;53.176;8.194;2023-01-29T07:59:27;44.65;;;21.65;;
18443;SDS011;9350;53.176;8.194;2023-01-29T08:01:53;41.63;;;21.15;;
18443;SDS011;9350;53.176;8.194;2023-01-29T08:04:20;40.55;;;20.92;;
18443;SDS011;9350;53.176;8.194;2023-01-29T08:06:47;46.17;;;22.17;;
18443;SDS011;9350;53.176;8.194;2023-01-29T08:09:13;40.08;;;20.08;;
18443;SDS011;9350;53.176;8.194;2023-01-29T08:11:41;40.15;;;20.23;;
18443;SDS011;9350;53.176;8.194;2023-01-29T08:14:08;41.33;;;20.50;;
18443;SDS011;9350;53.176;8.194;2023-01-29T08:16:35;42.33;;;20.52;;
18443;SDS011;9350;53.176;8.194;2023-01-29T08:19:01;41.42;;;20.80;;
18443;SDS011;9350;53.176;8.194;2023-01-29T08:21:28;37.35;;;20.27;;
18443;SDS011;9350;53.176;8.194;2023-01-29T08:23:55;38.78;;;20.45;;
18443;SDS011;9350;53.176;8.194;2023-01-29T08:26:21;40.67;;;20.60;;
18443;SDS011;9350;53.176;8.194;2023-01-29T08:28:51;39.90;;;19.98;;
18443;SDS011;9350;53.176;8.194;2023-01-29T08:31:18;33.40;;;19.50;;
18443;SDS011;9350;53.176;8.194;2023-01-29T08:33:45;36.92;;;19.35;;
18443;SDS011;9350;53.176;8.194;2023-01-29T08:36:12;35.55;;;18.73;;
18443;SDS011;9350;53.176;8.194;2023-01-29T08:38:39;37.38;;;19.02;;
18443;SDS011;9350;53.176;8.194;2023-01-29T08:41:06;35.25;;;18.98;;
18443;SDS011;9350;53.176;8.194;2023-01-29T08:43:33;34.22;;;18.08;;
18443;SDS011;9350;53.176;8.194;2023-01-29T08:46:03;32.65;;;18.55;;
18443;SDS011;9350;53.176;8.194;2023-01-29T08:48:30;36.08;;;19.33;;
18443;SDS011;9350;53.176;8.194;2023-01-29T08:50:57;35.42;;;18.70;;
18443;SDS011;9350;53.176;8.194;2023-01-29T08:53:24;34.05;;;18.48;;
18443;SDS011;9350;53.176;8.194;2023-01-29T08:55:52;32.53;;;18.30;;
18443;SDS011;9350;53.176;8.194;2023-01-29T08:58:19;33.33;;;18.23;;
18443;SDS011;9350;53.176;8.194;2023-01-29T09:00:46;32.50;;;17.85;;
18443;SDS011;9350;53.176;8.194;2023-01-29T09:03:14;33.30;;;18.05;;
18443;SDS011;9350;53.176;8.194;2023-01-29T09:05:40;33.33;;;17.58;;
18443;SDS011;9350;53.176;8.194;2023-01-29T09:08:08;35.10;;;17.83;;
18443;SDS011;9350;53.176;8.194;2023-01-29T09:10:35;33.15;;;17.48;;
18443;SDS011;9350;53.176;8.194;2023-01-29T09:13:02;32.45;;;17.33;;
18443;SDS011;9350;53.176;8.194;2023-01-29T09:15:29;32.88;;;17.85;;
18443;SDS011;9350;53.176;8.194;2023-01-29T09:17:56;29.17;;;17.17;;
18443;SDS011;9350;53.176;8.194;2023-01-29T09:20:24;32.78;;;17.30;;
18443;SDS011;9350;53.176;8.194;2023-01-29T09:22:50;36.38;;;17.88;;
18443;SDS011;9350;53.176;8.194;2023-01-29T09:25:20;36.42;;;17.20;;
18443;SDS011;9350;53.176;8.194;2023-01-29T09:27:47;37.47;;;17.63;;
18443;SDS011;9350;53.176;8.194;2023-01-29T09:30:14;32.05;;;18.55;;
18443;SDS011;9350;53.176;8.194;2023-01-29T09:32:41;31.42;;;17.60;;
18443;SDS011;9350;53.176;8.194;2023-01-29T09:35:08;35.38;;;17.08;;
18443;SDS011;9350;53.176;8.194;2023-01-29T09:37:36;32.25;;;17.70;;
18443;SDS011;9350;53.176;8.194;2023-01-29T09:40:03;30.98;;;16.73;;
18443;SDS011;9350;53.176;8.194;2023-01-29T09:42:33;29.63;;;16.67;;
18443;SDS011;9350;53.176;8.194;2023-01-29T09:45:03;30.65;;;17.45;;
18443;SDS011;9350;53.176;8.194;2023-01-29T09:47:35;29.98;;;16.70;;
18443;SDS011;9350;53.176;8.194;2023-01-29T09:50:04;30.25;;;16.38;;
18443;SDS011;9350;53.176;8.194;2023-01-29T09:52:33;29.52;;;16.02;;
18443;SDS011;9350;53.176;8.194;2023-01-29T09:55:06;29.90;;;17.30;;
18443;SDS011;9350;53.176;8.194;2023-01-29T09:57:40;32.85;;;17.20;;
18443;SDS011;9350;53.176;8.194;2023-01-29T10:00:13;28.48;;;16.73;;
18443;SDS011;9350;53.176;8.194;2023-01-29T10:02:51;30.10;;;16.85;;
18443;SDS011;9350;53.176;8.194;2023-01-29T10:05:53;30.83;;;16.83;;
18443;SDS011;9350;53.176;8.194;2023-01-29T10:08:39;34.75;;;16.85;;
18443;SDS011;9350;53.176;8.194;2023-01-29T10:11:20;39.28;;;17.48;;
18443;SDS011;9350;53.176;8.194;2023-01-29T10:13:57;31.98;;;17.80;;
18443;SDS011;9350;53.176;8.194;2023-01-29T10:16:40;31.55;;;17.13;;
18443;SDS011;9350;53.176;8.194;2023-01-29T10:22:17;30.13;;;16.83;;
18443;SDS011;9350;53.176;8.194;2023-01-29T10:25:05;30.67;;;16.05;;
18443;SDS011;9350;53.176;8.194;2023-01-29T10:27:37;29.08;;;16.63;;
18443;SDS011;9350;53.176;8.194;2023-01-29T10:30:17;27.77;;;16.40;;
18443;SDS011;9350;53.176;8.194;2023-01-29T10:32:52;34.03;;;16.92;;
18443;SDS011;9350;53.176;8.194;2023-01-29T10:35:21;28.08;;;16.35;;
18443;SDS011;9350;53.176;8.194;2023-01-29T10:37:50;28.10;;;16.00;;
18443;SDS011;9350;53.176;8.194;2023-01-29T10:40:20;33.03;;;16.92;;
18443;SDS011;9350;53.176;8.194;2023-01-29T10:42:50;28.63;;;16.23;;
18443;SDS011;9350;53.176;8.194;2023-01-29T10:45:25;28.73;;;16.00;;
18443;SDS011;9350;53.176;8.194;2023-01-29T10:50:59;29.17;;;16.08;;
18443;SDS011;9350;53.176;8.194;2023-01-29T10:53:41;30.92;;;17.02;;
18443;SDS011;9350;53.176;8.194;2023-01-29T10:56:34;28.40;;;15.95;;
18443;SDS011;9350;53.176;8.194;2023-01-29T10:59:12;30.77;;;17.02;;
18443;SDS011;9350;53.176;8.194;2023-01-29T11:01:55;29.73;;;16.48;;
18443;SDS011;9350;53.176;8.194;2023-01-29T11:04:23;29.38;;;16.80;;
18443;SDS011;9350;53.176;8.194;2023-01-29T11:06:51;31.40;;;16.77;;
18443;SDS011;9350;53.176;8.194;2023-01-29T11:09:21;30.23;;;16.98;;
18443;SDS011;9350;53.176;8.194;2023-01-29T11:11:56;30.48;;;16.98;;
18443;SDS011;9350;53.176;8.194;2023-01-29T11:14:26;31.42;;;17.08;;
18443;SDS011;9350;53.176;8.194;2023-01-29T11:16:56;31.38;;;16.88;;
18443;SDS011;9350;53.176;8.194;2023-01-29T11:19:34;27.45;;;16.92;;
18443;SDS011;9350;53.176;8.194;2023-01-29T11:22:02;28.95;;;16.80;;
18443;SDS011;9350;53.176;8.194;2023-01-29T11:24:29;34.05;;;17.55;;
18443;SDS011;9350;53.176;8.194;2023-01-29T11:26:58;34.60;;;18.55;;
18443;SDS011;9350;53.176;8.194;2023-01-29T11:29:29;30.80;;;17.30;;
18443;SDS011;9350;53.176;8.194;2023-01-29T11:31:59;31.65;;;17.92;;
18443;SDS011;9350;53.176;8.194;2023-01-29T11:34:29;35.17;;;18.77;;
18443;SDS011;9350;53.176;8.194;2023-01-29T11:36:56;33.03;;;17.60;;
18443;SDS011;9350;53.176;8.194;2023-01-29T11:39:25;37.38;;;18.20;;
18443;SDS011;9350;53.176;8.194;2023-01-29T11:41:54;31.60;;;18.13;;
18443;SDS011;9350;53.176;8.194;2023-01-29T11:44:28;35.53;;;19.08;;
18443;SDS011;9350;53.176;8.194;2023-01-29T11:46:58;31.90;;;17.13;;
18443;SDS011;9350;53.176;8.194;2023-01-29T11:49:36;31.40;;;17.48;;
18443;SDS011;9350;53.176;8.194;2023-01-29T11:52:06;36.15;;;17.83;;
18443;SDS011;9350;53.176;8.194;2023-01-29T11:54:35;32.90;;;18.38;;
18443;SDS011;9350;53.176;8.194;2023-01-29T11:57:14;31.02;;;18.73;;
18443;SDS011;9350;53.176;8.194;2023-01-29T11:59:49;34.28;;;18.55;;
18443;SDS011;9350;53.176;8.194;2023-01-29T12:02:19;35.58;;;19.65;;
18443;SDS011;9350;53.176;8.194;2023-01-29T12:04:55;31.30;;;17.48;;
18443;SDS011;9350;53.176;8.194;2023-01-29T12:07:24;36.72;;;18.48;;
18443;SDS011;9350;53.176;8.194;2023-01-29T12:09:53;37.95;;;19.08;;
18443;SDS011;9350;53.176;8.194;2023-01-29T12:12:30;33.10;;;18.50;;
18443;SDS011;9350;53.176;8.194;2023-01-29T12:15:03;33.33;;;18.85;;
18443;SDS011;9350;53.176;8.194;2023-01-29T12:17:39;34.47;;;19.25;;
18443;SDS011;9350;53.176;8.194;2023-01-29T12:20:10;35.85;;;18.00;;
18443;SDS011;9350;53.176;8.194;2023-01-29T12:22:41;33.15;;;18.48;;
18443;SDS011;9350;53.176;8.194;2023-01-29T12:25:16;33.92;;;19.17;;
18443;SDS011;9350;53.176;8.194;2023-01-29T12:27:48;31.75;;;17.98;;
18443;SDS011;9350;53.176;8.194;2023-01-29T12:30:21;35.25;;;19.98;;
18443;SDS011;9350;53.176;8.194;2023-01-29T12:32:53;34.55;;;18.45;;
18443;SDS011;9350;53.176;8.194;2023-01-29T12:35:26;32.75;;;18.42;;
18443;SDS011;9350;53.176;8.194;2023-01-29T12:37:57;37.30;;;19.27;;
18443;SDS011;9350;53.176;8.194;2023-01-29T12:40:28;35.70;;;19.05;;
18443;SDS011;9350;53.176;8.194;2023-01-29T12:43:03;40.38;;;19.30;;
18443;SDS011;9350;53.176;8.194;2023-01-29T12:45:36;39.13;;;19.95;;
18443;SDS011;9350;53.176;8.194;2023-01-29T12:48:05;35.13;;;18.30;;
18443;SDS011;9350;53.176;8.194;2023-01-29T12:50:35;36.70;;;19.00;;
18443;SDS011;9350;53.176;8.194;2023-01-29T12:53:04;36.65;;;20.50;;
18443;SDS011;9350;53.176;8.194;2023-01-29T12:55:41;35.10;;;19.80;;
18443;SDS011;9350;53.176;8.194;2023-01-29T12:58:13;37.40;;;18.98;;
18443;SDS011;9350;53.176;8.194;2023-01-29T13:00:42;37.78;;;20.02;;
18443;SDS011;9350;53.176;8.194;2023-01-29T13:03:13;34.83;;;18.75;;
18443;SDS011;9350;53.176;8.194;2023-01-29T13:05:46;36.70;;;18.83;;
18443;SDS011;9350;53.176;8.194;2023-01-29T13:08:16;37.15;;;20.08;;
18443;SDS011;9350;53.176;8.194;2023-01-29T13:10:47;35.05;;;18.40;;
18443;SDS011;9350;53.176;8.194;2023-01-29T13:13:21;38.58;;;20.38;;
18443;SDS011;9350;53.176;8.194;2023-01-29T13:15:53;36.30;;;20.15;;
18443;SDS011;9350;53.176;8.194;2023-01-29T13:18:39;41.72;;;20.83;;
18443;SDS011;9350;53.176;8.194;2023-01-29T13:21:11;39.60;;;19.85;;
18443;SDS011;9350;53.176;8.194;2023-01-29T13:23:41;39.78;;;20.42;;
18443;SDS011;9350;53.176;8.194;2023-01-29T13:26:11;39.33;;;20.05;;
18443;SDS011;9350;53.176;8.194;2023-01-29T13:28:39;43.20;;;21.85;;
18443;SDS011;9350;53.176;8.194;2023-01-29T13:33:54;43.50;;;20.08;;
18443;SDS011;9350;53.176;8.194;2023-01-29T13:36:26;41.33;;;21.70;;
18443;SDS011;9350;53.176;8.194;2023-01-29T13:38:58;42.97;;;22.33;;
18443;SDS011;9350;53.176;8.194;2023-01-29T13:41:31;43.78;;;21.30;;
18443;SDS011;9350;53.176;8.194;2023-01-29T13:44:07;43.60;;;21.95;;
18443;SDS011;9350;53.176;8.194;2023-01-29T13:46:47;43.30;;;22.27;;
18443;SDS011;9350;53.176;8.194;2023-01-29T13:49:30;39.75;;;21.10;;
18443;SDS011;9350;53.176;8.194;2023-01-29T13:52:13;40.20;;;21.25;;
18443;SDS011;9350;53.176;8.194;2023-01-29T13:54:48;39.28;;;20.75;;
18443;SDS011;9350;53.176;8.194;2023-01-29T13:57:34;39.28;;;21.15;;
18443;SDS011;9350;53.176;8.194;2023-01-29T14:09:32;39.50;;;20.17;;
18443;SDS011;9350;53.176;8.194;2023-01-29T14:12:34;37.20;;;19.10;;
18443;SDS011;9350;53.176;8.194;2023-01-29T14:15:13;43.92;;;20.23;;
18443;SDS011;9350;53.176;8.194;2023-01-29T14:20:59;37.17;;;20.38;;
18443;SDS011;9350;53.176;8.194;2023-01-29T14:23:30;40.22;;;20.27;;
18443;SDS011;9350;53.176;8.194;2023-01-29T14:26:03;36.67;;;20.20;;
18443;SDS011;9350;53.176;8.194;2023-01-29T14:28:32;36.83;;;19.33;;
18443;SDS011;9350;53.176;8.194;2023-01-29T14:30:59;35.58;;;19.38;;
18443;SDS011;9350;53.176;8.194;2023-01-29T14:33:30;38.58;;;19.88;;
18443;SDS011;9350;53.176;8.194;2023-01-29T14:36:03;43.83;;;20.92;;
18443;SDS011;9350;53.176;8.194;2023-01-29T14:38:32;39.60;;;21.08;;
18443;SDS011;9350;53.176;8.194;2023-01-29T14:43:49;37.28;;;19.98;;
18443;SDS011;9350;53.176;8.194;2023-01-29T14:49:12;39.28;;;19.90;;
18443;SDS011;9350;53.176;8.194;2023-01-29T14:52:16;41.90;;;20.15;;
18443;SDS011;9350;53.176;8.194;2023-01-29T14:54:46;37.80;;;20.10;;
18443;SDS011;9350;53.176;8.194;2023-01-29T14:57:15;41.03;;;21.67;;
18443;SDS011;9350;53.176;8.194;2023-01-29T14:59:45;43.15;;;21.40;;
18443;SDS011;9350;53.176;8.194;2023-01-29T15:02:19;35.80;;;19.77;;
18443;SDS011;9350;53.176;8.194;2023-01-29T15:04:50;38.03;;;20.45;;
18443;SDS011;9350;53.176;8.194;2023-01-29T15:07:24;40.03;;;20.23;;
18443;SDS011;9350;53.176;8.194;2023-01-29T15:09:56;38.97;;;20.30;;
18443;SDS011;9350;53.176;8.194;2023-01-29T15:12:31;38.97;;;20.55;;
18443;SDS011;9350;53.176;8.194;2023-01-29T15:15:04;40.00;;;21.55;;
18443;SDS011;9350;53.176;8.194;2023-01-29T15:17:40;38.22;;;20.73;;
18443;SDS011;9350;53.176;8.194;2023-01-29T15:20:27;40.88;;;19.77;;
18443;SDS011;9350;53.176;8.194;2023-01-29T15:22:57;34.83;;;19.88;;
18443;SDS011;9350;53.176;8.194;2023-01-29T15:25:23;38.25;;;21.05;;
18443;SDS011;9350;53.176;8.194;2023-01-29T15:27:52;40.88;;;20.67;;
18443;SDS011;9350;53.176;8.194;2023-01-29T15:30:22;41.47;;;20.15;;